sensor_id;sensor_type;location;lat;lon;timestamp;P1;durP1;ratioP1;P2;durP2;ratioP2
43670;SDS011;29267;50.906;7.248;2024-03-23T00:53:40;22.05;;;6.30;;
43670;SDS011;29267;50.906;7.248;2024-03-23T00:56:06;14.00;;;4.60;;
43670;SDS011;29267;50.906;7.248;2024-03-23T00:58:31;11.82;;;5.38;;
43670;SDS011;29267;50.906;7.248;2024-03-23T01:00:57;13.52;;;5.22;;
43670;SDS011;29267;50.906;7.248;2024-03-23T01:03:22;14.68;;;5.45;;
43670;SDS011;29267;50.906;7.248;2024-03-23T01:05:48;16.00;;;6.10;;
43670;SDS011;29267;50.906;7.248;2024-03-23T01:08:13;17.17;;;6.22;;
43670;SDS011;29267;50.906;7.248;2024-03-23T01:10:39;15.52;;;5.22;;
43670;SDS011;29267;50.906;7.248;2024-03-23T01:13:05;13.45;;;5.78;;
43670;SDS011;29267;50.906;7.248;2024-03-23T01:15:31;12.00;;;5.95;;
43670;SDS011;29267;50.906;7.248;2024-03-23T01:17:56;18.83;;;6.43;;
43670;SDS011;29267;50.906;7.248;2024-03-23T01:20:22;21.05;;;7.25;;
43670;SDS011;29267;50.906;7.248;2024-03-23T01:22:48;17.00;;;6.53;;
43670;SDS011;29267;50.906;7.248;2024-03-23T01:25:13;20.80;;;6.30;;
43670;SDS011;29267;50.906;7.248;2024-03-23T01:27:39;17.75;;;6.70;;
43670;SDS011;29267;50.906;7.248;2024-03-23T01:30:05;20.25;;;6.57;;
43670;SDS011;29267;50.906;7.248;2024-03-23T01:32:31;24.60;;;7.82;;
43670;SDS011;29267;50.906;7.248;2024-03-23T01:34:56;14.05;;;6.55;;
43670;SDS011;29267;50.906;7.248;2024-03-23T01:37:22;22.65;;;6.68;;
43670;SDS011;29267;50.906;7.248;2024-03-23T01:39:47;17.00;;;6.15;;
43670;SDS011;29267;50.906;7.248;2024-03-23T01:42:13;13.75;;;6.53;;
43670;SDS011;29267;50.906;7.248;2024-03-23T01:44:38;14.88;;;6.70;;
43670;SDS011;29267;50.906;7.248;2024-03-23T01:47:04;23.98;;;6.60;;
43670;SDS011;29267;50.906;7.248;2024-03-23T01:49:31;14.88;;;6.35;;
43670;SDS011;29267;50.906;7.248;2024-03-23T01:51:58;14.93;;;6.50;;
43670;SDS011;29267;50.906;7.248;2024-03-23T01:54:24;20.17;;;7.18;;
43670;SDS011;29267;50.906;7.248;2024-03-23T01:56:50;26.30;;;7.45;;
43670;SDS011;29267;50.906;7.248;2024-03-23T01:59:16;10.98;;;5.20;;
43670;SDS011;29267;50.906;7.248;2024-03-23T02:01:41;14.65;;;5.85;;
43670;SDS011;29267;50.906;7.248;2024-03-23T02:04:07;17.35;;;5.57;;
43670;SDS011;29267;50.906;7.248;2024-03-23T02:06:34;10.93;;;5.18;;
43670;SDS011;29267;50.906;7.248;2024-03-23T02:09:00;20.25;;;5.90;;
43670;SDS011;29267;50.906;7.248;2024-03-23T02:11:25;11.82;;;4.47;;
43670;SDS011;29267;50.906;7.248;2024-03-23T02:13:51;14.75;;;4.80;;
43670;SDS011;29267;50.906;7.248;2024-03-23T02:16:17;12.90;;;4.80;;
43670;SDS011;29267;50.906;7.248;2024-03-23T02:18:42;10.07;;;4.10;;
43670;SDS011;29267;50.906;7.248;2024-03-23T02:21:08;7.63;;;4.60;;
43670;SDS011;29267;50.906;7.248;2024-03-23T02:23:33;11.10;;;4.20;;
43670;SDS011;29267;50.906;7.248;2024-03-23T02:25:59;10.73;;;3.65;;
43670;SDS011;29267;50.906;7.248;2024-03-23T02:28:24;10.65;;;3.50;;
43670;SDS011;29267;50.906;7.248;2024-03-23T02:30:50;13.20;;;4.47;;
43670;SDS011;29267;50.906;7.248;2024-03-23T02:33:16;10.10;;;3.70;;
43670;SDS011;29267;50.906;7.248;2024-03-23T02:35:43;21.17;;;5.47;;
43670;SDS011;29267;50.906;7.248;2024-03-23T02:38:09;18.95;;;5.07;;
43670;SDS011;29267;50.906;7.248;2024-03-23T02:40:35;15.15;;;3.63;;
43670;SDS011;29267;50.906;7.248;2024-03-23T02:43:02;10.70;;;3.10;;
43670;SDS011;29267;50.906;7.248;2024-03-23T02:45:28;4.55;;;2.30;;
43670;SDS011;29267;50.906;7.248;2024-03-23T02:47:53;7.90;;;2.20;;
43670;SDS011;29267;50.906;7.248;2024-03-23T02:50:19;6.35;;;1.55;;
43670;SDS011;29267;50.906;7.248;2024-03-23T02:52:45;5.45;;;1.80;;
43670;SDS011;29267;50.906;7.248;2024-03-23T02:55:11;4.18;;;1.67;;
43670;SDS011;29267;50.906;7.248;2024-03-23T02:57:37;3.90;;;1.50;;
43670;SDS011;29267;50.906;7.248;2024-03-23T03:00:02;8.20;;;1.70;;
43670;SDS011;29267;50.906;7.248;2024-03-23T03:02:28;5.55;;;1.88;;
43670;SDS011;29267;50.906;7.248;2024-03-23T03:04:54;7.35;;;2.45;;
43670;SDS011;29267;50.906;7.248;2024-03-23T03:07:20;6.38;;;1.88;;
43670;SDS011;29267;50.906;7.248;2024-03-23T03:09:45;5.28;;;1.67;;
43670;SDS011;29267;50.906;7.248;2024-03-23T03:12:11;3.80;;;1.90;;
43670;SDS011;29267;50.906;7.248;2024-03-23T03:14:36;3.53;;;1.55;;
43670;SDS011;29267;50.906;7.248;2024-03-23T03:17:02;3.25;;;1.58;;
43670;SDS011;29267;50.906;7.248;2024-03-23T03:19:28;5.63;;;1.77;;
43670;SDS011;29267;50.906;7.248;2024-03-23T03:21:53;11.35;;;2.22;;
43670;SDS011;29267;50.906;7.248;2024-03-23T03:24:19;6.55;;;1.55;;
43670;SDS011;29267;50.906;7.248;2024-03-23T03:26:44;5.85;;;1.45;;
43670;SDS011;29267;50.906;7.248;2024-03-23T03:29:10;14.18;;;1.73;;
43670;SDS011;29267;50.906;7.248;2024-03-23T03:31:36;12.98;;;2.33;;
43670;SDS011;29267;50.906;7.248;2024-03-23T03:34:02;4.43;;;1.25;;
43670;SDS011;29267;50.906;7.248;2024-03-23T03:36:28;2.92;;;0.95;;
43670;SDS011;29267;50.906;7.248;2024-03-23T03:38:53;13.73;;;1.30;;
43670;SDS011;29267;50.906;7.248;2024-03-23T03:41:19;13.52;;;2.28;;
43670;SDS011;29267;50.906;7.248;2024-03-23T03:43:45;9.63;;;1.50;;
43670;SDS011;29267;50.906;7.248;2024-03-23T03:46:11;10.77;;;1.73;;
43670;SDS011;29267;50.906;7.248;2024-03-23T03:48:36;18.65;;;2.35;;
43670;SDS011;29267;50.906;7.248;2024-03-23T03:51:02;11.30;;;1.50;;
43670;SDS011;29267;50.906;7.248;2024-03-23T03:53:28;12.70;;;1.50;;
43670;SDS011;29267;50.906;7.248;2024-03-23T03:55:54;6.47;;;2.40;;
43670;SDS011;29267;50.906;7.248;2024-03-23T03:58:19;5.90;;;1.23;;
43670;SDS011;29267;50.906;7.248;2024-03-23T04:00:45;5.22;;;1.10;;
43670;SDS011;29267;50.906;7.248;2024-03-23T04:03:11;12.13;;;1.33;;
43670;SDS011;29267;50.906;7.248;2024-03-23T04:05:36;5.22;;;1.38;;
43670;SDS011;29267;50.906;7.248;2024-03-23T04:08:02;6.68;;;1.38;;
43670;SDS011;29267;50.906;7.248;2024-03-23T04:10:29;11.20;;;2.10;;
43670;SDS011;29267;50.906;7.248;2024-03-23T04:12:55;8.43;;;1.20;;
43670;SDS011;29267;50.906;7.248;2024-03-23T04:15:21;7.93;;;1.95;;
43670;SDS011;29267;50.906;7.248;2024-03-23T04:17:46;7.45;;;1.60;;
43670;SDS011;29267;50.906;7.248;2024-03-23T04:20:12;6.25;;;2.95;;
43670;SDS011;29267;50.906;7.248;2024-03-23T04:22:41;6.65;;;1.50;;
43670;SDS011;29267;50.906;7.248;2024-03-23T04:25:10;10.27;;;1.38;;
43670;SDS011;29267;50.906;7.248;2024-03-23T04:27:36;12.07;;;1.90;;
43670;SDS011;29267;50.906;7.248;2024-03-23T04:30:02;8.18;;;1.67;;
43670;SDS011;29267;50.906;7.248;2024-03-23T04:32:29;10.27;;;1.70;;
43670;SDS011;29267;50.906;7.248;2024-03-23T04:34:55;7.90;;;1.85;;
43670;SDS011;29267;50.906;7.248;2024-03-23T04:37:21;11.43;;;1.77;;
43670;SDS011;29267;50.906;7.248;2024-03-23T04:39:47;10.82;;;2.22;;
43670;SDS011;29267;50.906;7.248;2024-03-23T04:42:14;7.95;;;2.05;;
43670;SDS011;29267;50.906;7.248;2024-03-23T04:44:41;9.10;;;2.20;;
43670;SDS011;29267;50.906;7.248;2024-03-23T04:47:07;4.80;;;1.98;;
43670;SDS011;29267;50.906;7.248;2024-03-23T04:49:32;15.63;;;2.55;;
43670;SDS011;29267;50.906;7.248;2024-03-23T04:51:58;15.20;;;2.63;;
43670;SDS011;29267;50.906;7.248;2024-03-23T04:54:23;16.08;;;2.40;;
43670;SDS011;29267;50.906;7.248;2024-03-23T04:56:49;9.57;;;2.13;;
43670;SDS011;29267;50.906;7.248;2024-03-23T04:59:15;9.77;;;2.22;;
43670;SDS011;29267;50.906;7.248;2024-03-23T05:01:40;6.05;;;2.00;;
43670;SDS011;29267;50.906;7.248;2024-03-23T05:04:07;11.65;;;2.65;;
43670;SDS011;29267;50.906;7.248;2024-03-23T05:06:33;20.67;;;3.40;;
43670;SDS011;29267;50.906;7.248;2024-03-23T05:08:59;18.92;;;3.55;;
43670;SDS011;29267;50.906;7.248;2024-03-23T05:11:26;14.27;;;3.67;;
43670;SDS011;29267;50.906;7.248;2024-03-23T05:13:52;21.45;;;3.67;;
43670;SDS011;29267;50.906;7.248;2024-03-23T05:16:18;12.68;;;3.65;;
43670;SDS011;29267;50.906;7.248;2024-03-23T05:18:44;10.48;;;3.53;;
43670;SDS011;29267;50.906;7.248;2024-03-23T05:21:09;23.80;;;4.85;;
43670;SDS011;29267;50.906;7.248;2024-03-23T05:23:35;11.27;;;3.65;;
43670;SDS011;29267;50.906;7.248;2024-03-23T05:26:00;13.60;;;4.50;;
43670;SDS011;29267;50.906;7.248;2024-03-23T05:28:26;16.60;;;4.45;;
43670;SDS011;29267;50.906;7.248;2024-03-23T05:30:54;10.48;;;4.07;;
43670;SDS011;29267;50.906;7.248;2024-03-23T05:33:20;11.80;;;3.92;;
43670;SDS011;29267;50.906;7.248;2024-03-23T05:35:46;12.38;;;3.58;;
43670;SDS011;29267;50.906;7.248;2024-03-23T05:38:20;11.32;;;3.70;;
43670;SDS011;29267;50.906;7.248;2024-03-23T05:40:56;9.10;;;3.80;;
43670;SDS011;29267;50.906;7.248;2024-03-23T05:43:22;13.23;;;3.75;;
43670;SDS011;29267;50.906;7.248;2024-03-23T05:45:54;12.48;;;3.67;;
43670;SDS011;29267;50.906;7.248;2024-03-23T05:48:23;14.55;;;4.63;;
43670;SDS011;29267;50.906;7.248;2024-03-23T05:50:49;9.20;;;3.40;;
43670;SDS011;29267;50.906;7.248;2024-03-23T05:53:15;12.80;;;3.60;;
43670;SDS011;29267;50.906;7.248;2024-03-23T05:55:42;13.82;;;4.93;;
43670;SDS011;29267;50.906;7.248;2024-03-23T05:58:07;17.10;;;3.85;;
43670;SDS011;29267;50.906;7.248;2024-03-23T06:00:33;10.27;;;2.90;;
43670;SDS011;29267;50.906;7.248;2024-03-23T06:02:59;11.10;;;3.28;;
43670;SDS011;29267;50.906;7.248;2024-03-23T06:05:25;15.10;;;3.13;;
43670;SDS011;29267;50.906;7.248;2024-03-23T06:07:51;17.15;;;4.00;;
43670;SDS011;29267;50.906;7.248;2024-03-23T06:10:16;16.63;;;3.10;;
43670;SDS011;29267;50.906;7.248;2024-03-23T06:12:42;10.95;;;3.13;;
43670;SDS011;29267;50.906;7.248;2024-03-23T06:15:07;11.60;;;2.63;;
43670;SDS011;29267;50.906;7.248;2024-03-23T06:17:38;20.80;;;3.85;;
43670;SDS011;29267;50.906;7.248;2024-03-23T06:20:04;12.05;;;3.15;;
43670;SDS011;29267;50.906;7.248;2024-03-23T06:22:33;15.68;;;3.50;;
43670;SDS011;29267;50.906;7.248;2024-03-23T06:24:59;14.07;;;3.78;;
43670;SDS011;29267;50.906;7.248;2024-03-23T06:27:25;9.20;;;3.17;;
43670;SDS011;29267;50.906;7.248;2024-03-23T06:29:50;13.23;;;4.53;;
43670;SDS011;29267;50.906;7.248;2024-03-23T06:32:16;18.05;;;3.45;;
43670;SDS011;29267;50.906;7.248;2024-03-23T06:34:42;16.10;;;3.10;;
43670;SDS011;29267;50.906;7.248;2024-03-23T06:37:07;14.27;;;4.35;;
43670;SDS011;29267;50.906;7.248;2024-03-23T06:39:34;12.77;;;3.40;;
43670;SDS011;29267;50.906;7.248;2024-03-23T06:42:03;11.65;;;4.40;;
43670;SDS011;29267;50.906;7.248;2024-03-23T06:44:29;10.85;;;2.90;;
43670;SDS011;29267;50.906;7.248;2024-03-23T06:46:58;8.50;;;3.08;;
43670;SDS011;29267;50.906;7.248;2024-03-23T06:49:24;15.45;;;3.00;;
43670;SDS011;29267;50.906;7.248;2024-03-23T06:51:49;21.98;;;2.53;;
43670;SDS011;29267;50.906;7.248;2024-03-23T06:54:19;12.95;;;2.95;;
43670;SDS011;29267;50.906;7.248;2024-03-23T06:56:45;9.77;;;3.35;;
43670;SDS011;29267;50.906;7.248;2024-03-23T06:59:11;10.85;;;3.10;;
43670;SDS011;29267;50.906;7.248;2024-03-23T07:01:37;18.55;;;3.03;;
43670;SDS011;29267;50.906;7.248;2024-03-23T07:04:02;15.63;;;4.30;;
43670;SDS011;29267;50.906;7.248;2024-03-23T07:06:29;18.45;;;3.65;;
43670;SDS011;29267;50.906;7.248;2024-03-23T07:08:57;20.27;;;3.42;;
43670;SDS011;29267;50.906;7.248;2024-03-23T07:11:23;14.82;;;3.45;;
43670;SDS011;29267;50.906;7.248;2024-03-23T07:13:49;13.30;;;4.00;;
43670;SDS011;29267;50.906;7.248;2024-03-23T07:16:16;9.40;;;2.88;;
43670;SDS011;29267;50.906;7.248;2024-03-23T07:18:42;11.90;;;2.90;;
43670;SDS011;29267;50.906;7.248;2024-03-23T07:21:08;11.00;;;2.97;;
43670;SDS011;29267;50.906;7.248;2024-03-23T07:23:33;14.55;;;2.92;;
43670;SDS011;29267;50.906;7.248;2024-03-23T07:26:02;22.00;;;3.33;;
43670;SDS011;29267;50.906;7.248;2024-03-23T07:28:29;11.25;;;2.72;;
43670;SDS011;29267;50.906;7.248;2024-03-23T07:31:06;10.80;;;2.55;;
43670;SDS011;29267;50.906;7.248;2024-03-23T07:33:34;11.63;;;3.03;;
43670;SDS011;29267;50.906;7.248;2024-03-23T07:36:01;18.33;;;3.83;;
43670;SDS011;29267;50.906;7.248;2024-03-23T07:38:27;17.23;;;3.05;;
43670;SDS011;29267;50.906;7.248;2024-03-23T07:41:02;9.48;;;3.20;;
43670;SDS011;29267;50.906;7.248;2024-03-23T07:43:31;10.88;;;2.40;;
43670;SDS011;29267;50.906;7.248;2024-03-23T07:45:57;13.23;;;2.55;;
43670;SDS011;29267;50.906;7.248;2024-03-23T07:48:23;10.43;;;2.72;;
43670;SDS011;29267;50.906;7.248;2024-03-23T07:53:27;15.07;;;3.70;;
43670;SDS011;29267;50.906;7.248;2024-03-23T07:55:54;12.98;;;3.47;;
43670;SDS011;29267;50.906;7.248;2024-03-23T07:58:21;11.93;;;2.67;;
43670;SDS011;29267;50.906;7.248;2024-03-23T08:00:47;10.38;;;2.67;;
43670;SDS011;29267;50.906;7.248;2024-03-23T08:03:12;15.35;;;3.30;;
43670;SDS011;29267;50.906;7.248;2024-03-23T08:05:38;16.65;;;3.00;;
43670;SDS011;29267;50.906;7.248;2024-03-23T08:08:03;11.38;;;3.53;;
43670;SDS011;29267;50.906;7.248;2024-03-23T08:10:29;13.32;;;2.83;;
43670;SDS011;29267;50.906;7.248;2024-03-23T08:12:54;9.98;;;2.92;;
43670;SDS011;29267;50.906;7.248;2024-03-23T08:15:20;12.27;;;3.53;;
43670;SDS011;29267;50.906;7.248;2024-03-23T08:17:45;18.17;;;4.10;;
43670;SDS011;29267;50.906;7.248;2024-03-23T08:20:11;12.38;;;4.57;;
43670;SDS011;29267;50.906;7.248;2024-03-23T08:22:37;16.17;;;3.67;;
43670;SDS011;29267;50.906;7.248;2024-03-23T08:25:02;13.07;;;3.25;;
43670;SDS011;29267;50.906;7.248;2024-03-23T08:27:28;15.65;;;3.28;;
43670;SDS011;29267;50.906;7.248;2024-03-23T08:29:54;12.55;;;3.45;;
43670;SDS011;29267;50.906;7.248;2024-03-23T08:32:19;12.70;;;3.70;;
43670;SDS011;29267;50.906;7.248;2024-03-23T08:34:45;17.42;;;3.35;;
43670;SDS011;29267;50.906;7.248;2024-03-23T08:37:10;12.10;;;3.45;;
43670;SDS011;29267;50.906;7.248;2024-03-23T08:39:36;13.02;;;3.97;;
43670;SDS011;29267;50.906;7.248;2024-03-23T08:42:01;11.23;;;3.30;;
43670;SDS011;29267;50.906;7.248;2024-03-23T08:44:27;10.95;;;3.13;;
43670;SDS011;29267;50.906;7.248;2024-03-23T08:46:55;10.65;;;3.60;;
43670;SDS011;29267;50.906;7.248;2024-03-23T08:49:21;8.80;;;2.78;;
43670;SDS011;29267;50.906;7.248;2024-03-23T08:51:46;10.77;;;3.45;;
43670;SDS011;29267;50.906;7.248;2024-03-23T08:54:12;12.57;;;3.20;;
43670;SDS011;29267;50.906;7.248;2024-03-23T08:56:37;6.78;;;2.10;;
43670;SDS011;29267;50.906;7.248;2024-03-23T08:59:03;10.13;;;3.08;;
43670;SDS011;29267;50.906;7.248;2024-03-23T09:01:29;9.63;;;2.72;;
43670;SDS011;29267;50.906;7.248;2024-03-23T09:03:55;6.72;;;2.30;;
43670;SDS011;29267;50.906;7.248;2024-03-23T09:06:20;11.55;;;2.85;;
43670;SDS011;29267;50.906;7.248;2024-03-23T09:08:46;10.65;;;2.60;;
43670;SDS011;29267;50.906;7.248;2024-03-23T09:11:12;8.35;;;2.65;;
43670;SDS011;29267;50.906;7.248;2024-03-23T09:13:38;8.63;;;2.58;;
43670;SDS011;29267;50.906;7.248;2024-03-23T09:16:05;11.10;;;2.55;;
43670;SDS011;29267;50.906;7.248;2024-03-23T09:18:32;12.32;;;2.95;;
43670;SDS011;29267;50.906;7.248;2024-03-23T09:20:58;8.45;;;4.10;;
43670;SDS011;29267;50.906;7.248;2024-03-23T09:23:24;16.30;;;3.28;;
43670;SDS011;29267;50.906;7.248;2024-03-23T09:25:49;12.90;;;3.13;;
43670;SDS011;29267;50.906;7.248;2024-03-23T09:28:15;9.75;;;3.30;;
43670;SDS011;29267;50.906;7.248;2024-03-23T09:30:40;15.40;;;3.85;;
43670;SDS011;29267;50.906;7.248;2024-03-23T09:33:09;11.77;;;3.00;;
43670;SDS011;29267;50.906;7.248;2024-03-23T09:35:38;8.40;;;3.28;;
43670;SDS011;29267;50.906;7.248;2024-03-23T09:38:04;7.82;;;2.85;;
43670;SDS011;29267;50.906;7.248;2024-03-23T09:40:32;10.45;;;4.03;;
43670;SDS011;29267;50.906;7.248;2024-03-23T09:42:58;7.55;;;2.90;;
43670;SDS011;29267;50.906;7.248;2024-03-23T09:45:27;6.88;;;2.85;;
43670;SDS011;29267;50.906;7.248;2024-03-23T09:47:54;13.40;;;2.72;;
43670;SDS011;29267;50.906;7.248;2024-03-23T09:50:21;9.70;;;3.75;;
43670;SDS011;29267;50.906;7.248;2024-03-23T09:52:47;13.57;;;3.17;;
43670;SDS011;29267;50.906;7.248;2024-03-23T09:55:13;10.82;;;3.30;;
43670;SDS011;29267;50.906;7.248;2024-03-23T09:57:39;16.73;;;4.30;;
43670;SDS011;29267;50.906;7.248;2024-03-23T10:00:07;10.88;;;3.17;;
43670;SDS011;29267;50.906;7.248;2024-03-23T10:02:34;12.85;;;4.40;;
43670;SDS011;29267;50.906;7.248;2024-03-23T10:05:00;10.43;;;2.97;;
43670;SDS011;29267;50.906;7.248;2024-03-23T10:07:26;10.07;;;2.15;;
43670;SDS011;29267;50.906;7.248;2024-03-23T10:09:53;12.75;;;2.63;;
43670;SDS011;29267;50.906;7.248;2024-03-23T10:12:19;6.43;;;1.65;;
43670;SDS011;29267;50.906;7.248;2024-03-23T10:14:45;18.02;;;3.10;;
43670;SDS011;29267;50.906;7.248;2024-03-23T10:19:44;8.85;;;2.47;;
43670;SDS011;29267;50.906;7.248;2024-03-23T10:22:16;8.02;;;2.20;;
43670;SDS011;29267;50.906;7.248;2024-03-23T10:24:46;12.75;;;3.10;;
43670;SDS011;29267;50.906;7.248;2024-03-23T10:27:17;17.83;;;3.58;;
43670;SDS011;29267;50.906;7.248;2024-03-23T10:29:52;7.40;;;2.97;;
43670;SDS011;29267;50.906;7.248;2024-03-23T10:32:32;9.32;;;2.50;;
43670;SDS011;29267;50.906;7.248;2024-03-23T10:34:57;11.55;;;2.53;;
43670;SDS011;29267;50.906;7.248;2024-03-23T10:37:43;8.23;;;2.05;;
43670;SDS011;29267;50.906;7.248;2024-03-23T10:40:09;5.53;;;1.40;;
43670;SDS011;29267;50.906;7.248;2024-03-23T10:42:37;9.05;;;1.75;;
43670;SDS011;29267;50.906;7.248;2024-03-23T10:45:06;10.55;;;1.52;;
43670;SDS011;29267;50.906;7.248;2024-03-23T10:47:34;5.80;;;1.25;;
43670;SDS011;29267;50.906;7.248;2024-03-23T10:50:01;8.40;;;1.20;;
43670;SDS011;29267;50.906;7.248;2024-03-23T10:52:27;7.05;;;1.63;;
43670;SDS011;29267;50.906;7.248;2024-03-23T10:54:52;8.75;;;1.80;;
43670;SDS011;29267;50.906;7.248;2024-03-23T10:57:20;6.90;;;1.65;;
43670;SDS011;29267;50.906;7.248;2024-03-23T10:59:51;6.43;;;1.17;;
43670;SDS011;29267;50.906;7.248;2024-03-23T11:02:20;10.30;;;1.63;;
43670;SDS011;29267;50.906;7.248;2024-03-23T11:04:47;2.88;;;0.95;;
43670;SDS011;29267;50.906;7.248;2024-03-23T11:07:31;3.63;;;1.92;;
43670;SDS011;29267;50.906;7.248;2024-03-23T11:09:58;5.22;;;1.10;;
43670;SDS011;29267;50.906;7.248;2024-03-23T11:14:57;5.18;;;1.65;;
43670;SDS011;29267;50.906;7.248;2024-03-23T11:17:25;2.53;;;1.23;;
43670;SDS011;29267;50.906;7.248;2024-03-23T11:23:00;3.95;;;1.55;;
43670;SDS011;29267;50.906;7.248;2024-03-23T11:25:25;8.95;;;1.88;;
43670;SDS011;29267;50.906;7.248;2024-03-23T11:27:52;5.47;;;1.55;;
43670;SDS011;29267;50.906;7.248;2024-03-23T11:30:23;11.55;;;1.85;;
43670;SDS011;29267;50.906;7.248;2024-03-23T11:32:56;6.15;;;1.77;;
43670;SDS011;29267;50.906;7.248;2024-03-23T11:40:44;6.78;;;1.17;;
43670;SDS011;29267;50.906;7.248;2024-03-23T11:43:12;4.97;;;1.25;;
43670;SDS011;29267;50.906;7.248;2024-03-23T11:48:09;8.43;;;1.50;;
43670;SDS011;29267;50.906;7.248;2024-03-23T11:50:38;9.70;;;1.23;;
43670;SDS011;29267;50.906;7.248;2024-03-23T11:53:09;8.00;;;1.70;;
43670;SDS011;29267;50.906;7.248;2024-03-23T11:55:56;3.13;;;1.00;;
43670;SDS011;29267;50.906;7.248;2024-03-23T11:58:23;4.53;;;1.00;;
43670;SDS011;29267;50.906;7.248;2024-03-23T12:00:52;7.25;;;1.15;;
43670;SDS011;29267;50.906;7.248;2024-03-23T12:03:22;3.97;;;0.73;;
43670;SDS011;29267;50.906;7.248;2024-03-23T12:05:51;6.93;;;1.38;;
43670;SDS011;29267;50.906;7.248;2024-03-23T12:08:24;3.97;;;1.15;;
43670;SDS011;29267;50.906;7.248;2024-03-23T12:11:04;2.92;;;1.35;;
43670;SDS011;29267;50.906;7.248;2024-03-23T12:13:29;1.55;;;0.70;;
43670;SDS011;29267;50.906;7.248;2024-03-23T12:15:56;15.93;;;5.00;;
43670;SDS011;29267;50.906;7.248;2024-03-23T12:18:34;25.50;;;6.10;;
43670;SDS011;29267;50.906;7.248;2024-03-23T12:21:00;11.15;;;4.25;;
43670;SDS011;29267;50.906;7.248;2024-03-23T12:23:25;5.18;;;2.33;;
43670;SDS011;29267;50.906;7.248;2024-03-23T12:25:51;32.13;;;9.32;;
43670;SDS011;29267;50.906;7.248;2024-03-23T12:28:16;17.70;;;4.63;;
43670;SDS011;29267;50.906;7.248;2024-03-23T12:30:42;9.68;;;2.63;;
43670;SDS011;29267;50.906;7.248;2024-03-23T12:33:07;6.88;;;1.23;;
43670;SDS011;29267;50.906;7.248;2024-03-23T12:35:33;3.47;;;0.82;;
43670;SDS011;29267;50.906;7.248;2024-03-23T12:37:59;2.47;;;0.82;;
43670;SDS011;29267;50.906;7.248;2024-03-23T12:40:25;5.13;;;0.70;;
43670;SDS011;29267;50.906;7.248;2024-03-23T12:42:54;5.78;;;1.38;;
43670;SDS011;29267;50.906;7.248;2024-03-23T12:45:21;7.43;;;1.17;;
43670;SDS011;29267;50.906;7.248;2024-03-23T12:47:47;3.50;;;1.27;;
43670;SDS011;29267;50.906;7.248;2024-03-23T12:50:12;7.80;;;1.33;;
43670;SDS011;29267;50.906;7.248;2024-03-23T12:52:38;3.58;;;0.90;;
43670;SDS011;29267;50.906;7.248;2024-03-23T12:55:04;3.83;;;1.52;;
43670;SDS011;29267;50.906;7.248;2024-03-23T12:57:30;4.57;;;0.90;;
43670;SDS011;29267;50.906;7.248;2024-03-23T12:59:56;3.45;;;1.45;;
43670;SDS011;29267;50.906;7.248;2024-03-23T13:02:22;5.47;;;0.98;;
43670;SDS011;29267;50.906;7.248;2024-03-23T13:04:51;2.20;;;1.33;;
43670;SDS011;29267;50.906;7.248;2024-03-23T13:07:18;1.73;;;0.90;;
43670;SDS011;29267;50.906;7.248;2024-03-23T13:09:44;2.25;;;0.95;;
43670;SDS011;29267;50.906;7.248;2024-03-23T13:12:10;1.48;;;0.68;;
43670;SDS011;29267;50.906;7.248;2024-03-23T13:14:37;5.07;;;1.05;;
43670;SDS011;29267;50.906;7.248;2024-03-23T13:17:03;5.68;;;2.33;;
43670;SDS011;29267;50.906;7.248;2024-03-23T13:19:29;1.05;;;0.65;;
43670;SDS011;29267;50.906;7.248;2024-03-23T13:21:56;1.75;;;0.50;;
43670;SDS011;29267;50.906;7.248;2024-03-23T13:24:22;0.88;;;0.40;;
43670;SDS011;29267;50.906;7.248;2024-03-23T13:26:49;1.55;;;0.73;;
43670;SDS011;29267;50.906;7.248;2024-03-23T13:29:15;7.50;;;0.70;;
43670;SDS011;29267;50.906;7.248;2024-03-23T13:31:41;4.78;;;0.70;;
43670;SDS011;29267;50.906;7.248;2024-03-23T13:34:07;1.05;;;0.57;;
43670;SDS011;29267;50.906;7.248;2024-03-23T13:36:32;6.40;;;0.80;;
43670;SDS011;29267;50.906;7.248;2024-03-23T13:38:58;0.68;;;0.55;;
43670;SDS011;29267;50.906;7.248;2024-03-23T13:41:24;4.57;;;0.95;;
43670;SDS011;29267;50.906;7.248;2024-03-23T13:43:49;0.95;;;0.60;;
43670;SDS011;29267;50.906;7.248;2024-03-23T13:46:15;2.78;;;1.10;;
43670;SDS011;29267;50.906;7.248;2024-03-23T13:48:41;1.50;;;0.68;;
43670;SDS011;29267;50.906;7.248;2024-03-23T13:51:07;2.33;;;0.80;;
43670;SDS011;29267;50.906;7.248;2024-03-23T13:53:32;5.25;;;1.08;;
43670;SDS011;29267;50.906;7.248;2024-03-23T13:55:58;1.10;;;0.68;;
43670;SDS011;29267;50.906;7.248;2024-03-23T13:58:24;4.85;;;1.30;;
43670;SDS011;29267;50.906;7.248;2024-03-23T14:00:52;2.85;;;1.25;;
43670;SDS011;29267;50.906;7.248;2024-03-23T14:03:18;9.20;;;1.02;;
43670;SDS011;29267;50.906;7.248;2024-03-23T14:05:44;5.05;;;1.40;;
43670;SDS011;29267;50.906;7.248;2024-03-23T14:08:09;4.32;;;1.00;;
43670;SDS011;29267;50.906;7.248;2024-03-23T14:10:36;2.83;;;1.70;;
43670;SDS011;29267;50.906;7.248;2024-03-23T14:13:05;3.30;;;1.15;;
43670;SDS011;29267;50.906;7.248;2024-03-23T14:15:31;3.63;;;1.42;;
43670;SDS011;29267;50.906;7.248;2024-03-23T14:17:57;3.88;;;1.08;;
43670;SDS011;29267;50.906;7.248;2024-03-23T14:20:23;6.90;;;1.48;;
43670;SDS011;29267;50.906;7.248;2024-03-23T14:22:48;4.88;;;1.90;;
43670;SDS011;29267;50.906;7.248;2024-03-23T14:25:14;7.50;;;1.67;;
43670;SDS011;29267;50.906;7.248;2024-03-23T14:27:40;3.72;;;1.33;;
43670;SDS011;29267;50.906;7.248;2024-03-23T14:30:06;9.57;;;1.70;;
43670;SDS011;29267;50.906;7.248;2024-03-23T14:32:32;5.95;;;1.40;;
43670;SDS011;29267;50.906;7.248;2024-03-23T14:35:02;1.92;;;0.73;;
43670;SDS011;29267;50.906;7.248;2024-03-23T14:37:36;2.30;;;0.90;;
43670;SDS011;29267;50.906;7.248;2024-03-23T14:40:03;3.97;;;0.98;;
43670;SDS011;29267;50.906;7.248;2024-03-23T14:42:29;4.03;;;0.90;;
43670;SDS011;29267;50.906;7.248;2024-03-23T14:44:56;5.25;;;1.27;;
43670;SDS011;29267;50.906;7.248;2024-03-23T14:47:21;4.82;;;1.60;;
43670;SDS011;29267;50.906;7.248;2024-03-23T14:49:47;1.92;;;0.88;;
43670;SDS011;29267;50.906;7.248;2024-03-23T14:52:15;2.10;;;1.08;;
43670;SDS011;29267;50.906;7.248;2024-03-23T14:54:44;4.30;;;1.40;;
43670;SDS011;29267;50.906;7.248;2024-03-23T14:57:10;3.17;;;1.02;;
43670;SDS011;29267;50.906;7.248;2024-03-23T14:59:36;7.85;;;1.85;;
43670;SDS011;29267;50.906;7.248;2024-03-23T15:02:05;3.97;;;2.60;;
43670;SDS011;29267;50.906;7.248;2024-03-23T15:04:34;12.07;;;2.53;;
43670;SDS011;29267;50.906;7.248;2024-03-23T15:07:00;20.55;;;7.35;;
43670;SDS011;29267;50.906;7.248;2024-03-23T15:09:25;9.48;;;3.60;;
43670;SDS011;29267;50.906;7.248;2024-03-23T15:11:51;13.60;;;4.47;;
43670;SDS011;29267;50.906;7.248;2024-03-23T15:14:16;3.75;;;1.90;;
43670;SDS011;29267;50.906;7.248;2024-03-23T15:16:42;1.98;;;1.08;;
43670;SDS011;29267;50.906;7.248;2024-03-23T15:19:08;3.88;;;0.80;;
43670;SDS011;29267;50.906;7.248;2024-03-23T15:21:34;3.88;;;1.08;;
43670;SDS011;29267;50.906;7.248;2024-03-23T15:23:59;4.75;;;1.95;;
43670;SDS011;29267;50.906;7.248;2024-03-23T15:26:25;2.20;;;0.90;;
43670;SDS011;29267;50.906;7.248;2024-03-23T15:28:51;3.17;;;0.82;;
43670;SDS011;29267;50.906;7.248;2024-03-23T15:31:23;3.05;;;1.08;;
43670;SDS011;29267;50.906;7.248;2024-03-23T15:33:49;1.50;;;0.82;;
43670;SDS011;29267;50.906;7.248;2024-03-23T15:36:15;4.07;;;1.00;;
43670;SDS011;29267;50.906;7.248;2024-03-23T15:38:41;6.43;;;0.73;;
43670;SDS011;29267;50.906;7.248;2024-03-23T15:41:07;6.68;;;1.60;;
43670;SDS011;29267;50.906;7.248;2024-03-23T15:43:33;8.45;;;3.75;;
43670;SDS011;29267;50.906;7.248;2024-03-23T15:46:02;24.55;;;8.82;;
43670;SDS011;29267;50.906;7.248;2024-03-23T15:48:29;85.68;;;31.55;;